Air Navigation Services of Czech Republic
Airport: LKPJ Updated:  22.04.2021 16:30:26  UTC
 METAR LKPJ 22.04. 16:30 ...
METAR LKPJ 221630Z AUTO 29014KT 9999 BKN180 10/M03 Q1018=